Falcon, North Carolina
Current Conditions -  °F | °C
As of 7:55 AM on Wednesday 26 Nov 2014 (Local Time) from KHRJ Reporting Station
Moderate Rain Moderate Rain  
Wind Chill: 44°   Ceiling: 700
Heat Index: 49°   Visibility: 3mi
Dew Point: 48°   Wind: 12mph
Humidity: 99%   Direction: 360°N
Pressure: 29.87"   Gusts: 22mph
Location:  35.19°N, 78.65°W
Report Text: KHRJ 261255Z AUTO 36010G19KT 3SM RA OVC007 09/09 A2987 RMK AO2 P0017 T00920091
Loading
Personal Weather Stations






























Interactive Weather Map New forecast layout! Learn more

10-Day Weather Forecast

Advertisements
Track Severe Weather on mobile